Aeroporto :
LOGIN :

Iscrizione | Disclaimer

   EN    FR    IT 

 










Sommario :    VFR   VFR Marginale   IFR   IFR Intensivo   IFR Molto Intensivo
Visibilità : 
Base nubi : 
>= 8 km
>= 3000ft
5 / 8 km
1000 / 3000 ft
1500m / 5 km
500 / 1000 ft
800 / 1500m
200 / 500 ft
< 800m
< 200 ft
Simboli :   Temporali  Nebbia  Neve Forte  Precipitazioni Forti  Vento > 20 kt
SIGMETs :   Varie  Temporali  Ghiacco  Turbolenza  Onda orograficha  Ceneri Vulcaniche






- Altitudine del aeroporto : 436 ft
- Codice IATA : ANG


LFBU - Angoulême Brie Champniers

ULTIMO METAR :
  • 140930Z AUTO 17006KT 140V200 9999 FEW008 BKN190 07/05 Q0998 NOSIG

METARs OBSOLETI :
  • 140900Z AUTO 18008KT 9999 FEW037 BKN190 BKN220 06/05 Q0998
  • 140830Z AUTO 18006KT 140V210 9999 BKN046 BKN064 BKN200 06/05 Q0998 NOSIG
  • 140800Z AUTO VRB02KT 9999 SCT041/// BKN058/// BKN084/// ///TCU 06/05 Q0998
  • 140730Z AUTO 20005KT 9999 FEW029/// OVC180/// ///TCU 06/05 Q0998 TEMPO 4000 SHRA BECMG SCT020
  • 140700Z AUTO 20005KT 170V230 9999 FEW017/// SCT032/// BKN140/// ///TCU 06/05 Q0998 TEMPO 4000 SHRA BKN007 BKN020TCU

TAF TAF LFBU
Valido dal 14 a 06 ore il 15 a 06 ore UTC


140500Z 1406/1506 22010KT 9999 SCT020
TEMPO 1406/1409 4000 SHRA BKN007 BKN020TCU
TEMPO 1415/1419 4000 SHRA BKN025TCU
BECMG 1415/1417 VRB02KT
PROB40 1500/1506 3000 BR
PROB30 1504/1506 0800 FG VV///



MetMap, La meteo Aeronautica in un colpo d'occhio ! - Copyright ORBIFLY Dicembre 2007 - Disclaimer

ORBIFLY MET'MAP TEAM :

Programmazione e sviluppo : Alexandra Zaïnal
Concezione e sviluppo : Baudouin d'Aumeries
Co-Programmazione e sviluppo : Marc-Olivier Méhu
Supporto tecnico e logistico : Manuel Goepfert
Aiuto per la traduzione : Arnaldo La Scala

Contatto : metmap@orbifly.com




FONTI E CREDITI :

   NOAA